createdAt,value
2022-10-18T00:02:23.263Z,15.11
2022-10-18T00:04:54.167Z,15.12
2022-10-18T00:07:25.085Z,15.13
2022-10-18T00:09:55.969Z,15.13
2022-10-18T00:12:27.347Z,15.14
2022-10-18T00:14:58.482Z,15.14
2022-10-18T00:17:29.706Z,15.14
2022-10-18T00:20:01.030Z,15.14
2022-10-18T00:22:32.099Z,15.15
2022-10-18T00:25:03.295Z,15.15
2022-10-18T00:27:34.767Z,15.17
2022-10-18T00:30:06.606Z,15.19
2022-10-18T00:32:41.589Z,15.19
2022-10-18T00:35:13.018Z,15.19
2022-10-18T00:37:43.931Z,15.19
2022-10-18T00:40:15.170Z,15.18
2022-10-18T00:42:45.953Z,15.17
2022-10-18T00:45:20.761Z,15.16
2022-10-18T00:47:56.821Z,15.15
2022-10-18T00:50:31.645Z,15.16
2022-10-18T00:53:06.032Z,15.16
2022-10-18T00:55:37.219Z,15.17
2022-10-18T00:58:09.970Z,15.17
2022-10-18T01:00:41.843Z,15.17
2022-10-18T01:03:12.700Z,15.16
2022-10-18T01:05:48.648Z,15.15
2022-10-18T01:08:42.125Z,15.15
2022-10-18T01:11:34.943Z,15.15
2022-10-18T01:14:19.925Z,15.15
2022-10-18T01:17:01.004Z,15.15
2022-10-18T01:20:04.198Z,15.17
2022-10-18T01:22:40.659Z,15.18
2022-10-18T01:25:27.414Z,15.19
2022-10-18T01:28:06.053Z,15.19
2022-10-18T01:30:49.346Z,15.19
2022-10-18T01:33:27.001Z,15.17
2022-10-18T01:36:04.311Z,15.17
2022-10-18T01:38:37.960Z,15.16
2022-10-18T01:41:14.813Z,15.15
2022-10-18T01:43:50.242Z,15.15
2022-10-18T01:46:25.924Z,15.13
2022-10-18T01:48:58.134Z,15.13
2022-10-18T01:51:30.454Z,15.14
2022-10-18T01:54:02.140Z,15.14
2022-10-18T01:56:48.811Z,15.15
2022-10-18T01:59:31.960Z,15.14
2022-10-18T02:02:10.935Z,15.13
2022-10-18T02:04:48.064Z,15.12
2022-10-18T02:07:30.342Z,15.09
2022-10-18T02:10:09.404Z,15.08
2022-10-18T02:12:44.752Z,15.06
2022-10-18T02:15:18.584Z,15.03
2022-10-18T02:17:49.583Z,14.99
2022-10-18T02:20:24.274Z,14.98
2022-10-18T02:22:57.492Z,14.96
2022-10-18T02:25:32.741Z,14.95
2022-10-18T02:28:04.581Z,14.94
2022-10-18T02:30:42.582Z,14.92
2022-10-18T02:33:18.336Z,14.90
2022-10-18T02:35:53.762Z,14.87
2022-10-18T02:38:28.244Z,14.86
2022-10-18T02:40:59.807Z,14.83
2022-10-18T02:43:30.899Z,14.80
2022-10-18T02:46:02.173Z,14.78
2022-10-18T02:48:33.560Z,14.76
2022-10-18T02:51:04.425Z,14.74
2022-10-18T02:53:35.293Z,14.73
2022-10-18T02:56:06.560Z,14.72
2022-10-18T02:58:37.580Z,14.72
2022-10-18T03:01:08.855Z,14.70
2022-10-18T03:03:39.965Z,14.70
2022-10-18T03:06:10.928Z,14.67
2022-10-18T03:08:41.887Z,14.66
2022-10-18T03:11:13.265Z,14.64
2022-10-18T03:13:44.098Z,14.62
2022-10-18T03:16:15.011Z,14.62
2022-10-18T03:18:45.962Z,14.62
2022-10-18T03:21:16.990Z,14.61
2022-10-18T03:23:47.945Z,14.60
2022-10-18T03:26:20.474Z,14.59
2022-10-18T03:28:51.491Z,14.58
2022-10-18T03:31:22.393Z,14.57
2022-10-18T03:33:53.262Z,14.56
2022-10-18T03:36:24.418Z,14.54
2022-10-18T03:38:55.268Z,14.53
2022-10-18T03:41:26.194Z,14.51
2022-10-18T03:43:57.033Z,14.48
2022-10-18T03:46:27.962Z,14.46
2022-10-18T03:48:58.853Z,14.46
2022-10-18T03:51:29.661Z,14.46
2022-10-18T03:54:00.945Z,14.44
2022-10-18T03:56:31.802Z,14.43
2022-10-18T03:59:04.623Z,14.42
2022-10-18T04:01:35.568Z,14.40
2022-10-18T04:04:06.667Z,14.38
2022-10-18T04:06:37.813Z,14.37
2022-10-18T04:09:10.238Z,14.36
2022-10-18T04:11:41.665Z,14.37
2022-10-18T04:14:12.519Z,14.37
2022-10-18T04:16:43.363Z,14.36
2022-10-18T04:19:14.522Z,14.37
2022-10-18T04:21:45.567Z,14.35
2022-10-18T04:24:17.759Z,14.35
2022-10-18T04:26:48.708Z,14.34
2022-10-18T04:29:19.527Z,14.33
2022-10-18T04:31:50.397Z,14.31
2022-10-18T04:34:21.383Z,14.29
2022-10-18T04:36:52.271Z,14.27
2022-10-18T04:39:23.334Z,14.28
2022-10-18T04:41:54.186Z,14.28
2022-10-18T04:44:25.064Z,14.29
2022-10-18T04:46:55.975Z,14.29
2022-10-18T04:49:26.947Z,14.30
2022-10-18T04:51:57.883Z,14.30
2022-10-18T04:54:28.938Z,14.29
2022-10-18T04:56:59.827Z,14.30
2022-10-18T04:59:30.689Z,14.29
2022-10-18T05:02:01.670Z,14.29
2022-10-18T05:04:32.959Z,14.29
2022-10-18T05:07:06.111Z,14.27
2022-10-18T05:09:37.018Z,14.28
2022-10-18T05:12:08.442Z,14.28
2022-10-18T05:14:39.634Z,14.28
2022-10-18T05:17:10.497Z,14.29
2022-10-18T05:19:41.404Z,14.29
2022-10-18T05:22:12.463Z,14.29
2022-10-18T05:24:43.371Z,14.30
2022-10-18T05:27:14.283Z,14.30
2022-10-18T05:29:45.201Z,14.31
2022-10-18T05:32:20.535Z,14.34
2022-10-18T05:34:51.701Z,14.36
2022-10-18T05:37:27.490Z,14.40
2022-10-18T05:39:59.581Z,14.46
2022-10-18T05:42:31.234Z,14.52
2022-10-18T05:45:02.742Z,14.58
2022-10-18T05:47:36.602Z,14.65
2022-10-18T05:50:11.790Z,14.73
2022-10-18T05:52:42.731Z,14.82
2022-10-18T05:55:14.349Z,14.93
2022-10-18T05:57:51.282Z,15.05
2022-10-18T06:00:23.087Z,15.17
2022-10-18T06:02:58.113Z,15.32
2022-10-18T06:05:30.754Z,15.50
2022-10-18T06:08:06.533Z,15.72
2022-10-18T06:10:43.611Z,16.00
2022-10-18T06:13:14.488Z,16.25
2022-10-18T06:15:52.007Z,16.54
2022-10-18T06:18:23.250Z,16.83
2022-10-18T06:20:59.640Z,17.04
2022-10-18T06:23:31.923Z,17.22
2022-10-18T06:26:05.696Z,17.34
2022-10-18T06:28:39.206Z,17.44
2022-10-18T06:31:11.442Z,17.53
2022-10-18T06:33:43.003Z,17.63
2022-10-18T06:36:19.062Z,17.72
2022-10-18T06:38:57.083Z,17.81
2022-10-18T06:41:34.379Z,17.89
2022-10-18T06:44:13.859Z,17.99
2022-10-18T06:46:45.355Z,18.12
2022-10-18T06:49:19.199Z,18.28
2022-10-18T06:51:50.420Z,18.43
2022-10-18T06:54:25.540Z,18.56
2022-10-18T06:57:03.347Z,18.72
2022-10-18T06:59:34.465Z,18.87
2022-10-18T07:02:08.895Z,19.00
2022-10-18T07:04:40.466Z,19.06
2022-10-18T07:07:11.893Z,19.12
2022-10-18T07:09:43.017Z,19.25
2022-10-18T07:12:19.162Z,19.34
2022-10-18T07:14:50.931Z,19.45
2022-10-18T07:17:22.230Z,19.54
2022-10-18T07:19:53.450Z,19.62
2022-10-18T07:22:29.418Z,19.68
2022-10-18T07:25:04.995Z,19.88
2022-10-18T07:27:39.533Z,20.16
2022-10-18T07:30:13.017Z,20.50
2022-10-18T07:32:50.572Z,20.76
2022-10-18T07:35:22.766Z,20.98
2022-10-18T07:37:53.637Z,21.10
2022-10-18T07:40:25.352Z,21.19
2022-10-18T07:42:56.362Z,21.32
2022-10-18T07:45:27.305Z,21.43
2022-10-18T07:47:59.772Z,21.56
2022-10-18T07:50:30.626Z,21.72
2022-10-18T07:53:01.803Z,21.88
2022-10-18T07:55:32.958Z,22.04
2022-10-18T07:58:04.259Z,22.17
2022-10-18T08:00:35.255Z,22.31
2022-10-18T08:03:06.757Z,22.43
2022-10-18T08:05:37.920Z,22.54
2022-10-18T08:08:09.008Z,22.64
2022-10-18T08:10:39.874Z,22.73
2022-10-18T08:13:10.776Z,22.73
2022-10-18T08:15:41.761Z,22.75
2022-10-18T08:18:15.330Z,22.87
2022-10-18T08:20:49.724Z,23.11
2022-10-18T08:23:20.590Z,23.60
2022-10-18T08:25:51.402Z,24.15
2022-10-18T08:28:22.231Z,24.77
2022-10-18T08:30:53.115Z,25.36
2022-10-18T08:33:24.064Z,26.04
2022-10-18T08:36:02.987Z,26.84
2022-10-18T08:38:35.325Z,27.72
2022-10-18T08:41:22.672Z,28.49
2022-10-18T08:44:07.114Z,29.33
2022-10-18T08:46:43.371Z,30.10
2022-10-18T08:49:26.753Z,30.63
2022-10-18T08:51:58.792Z,31.26
2022-10-18T08:54:38.113Z,31.82
2022-10-18T08:57:18.214Z,32.34
2022-10-18T08:59:49.087Z,32.75
2022-10-18T09:02:33.762Z,33.03
2022-10-18T09:05:17.156Z,33.24
2022-10-18T09:08:15.649Z,33.39
2022-10-18T09:14:04.748Z,33.22
2022-10-18T09:16:46.955Z,32.81
2022-10-18T09:19:33.072Z,32.30
2022-10-18T09:22:13.653Z,31.75
2022-10-18T09:24:52.312Z,31.28
2022-10-18T09:27:34.367Z,30.84
2022-10-18T09:30:14.853Z,30.36
2022-10-18T09:32:52.838Z,29.89
2022-10-18T09:35:29.656Z,29.39
2022-10-18T09:38:06.748Z,28.99
2022-10-18T09:40:45.815Z,28.60
2022-10-18T09:43:21.780Z,28.28
2022-10-18T09:45:54.662Z,27.99
2022-10-18T09:48:34.813Z,27.80
2022-10-18T09:51:11.582Z,27.67
2022-10-18T09:53:53.194Z,27.57
2022-10-18T09:56:30.621Z,27.44
2022-10-18T09:59:01.777Z,27.29
2022-10-18T10:01:34.856Z,27.19
2022-10-18T10:04:05.846Z,27.08
2022-10-18T10:06:39.060Z,26.89
2022-10-18T10:09:17.618Z,26.68
2022-10-18T10:11:50.575Z,26.50
2022-10-18T10:14:26.133Z,26.43
2022-10-18T10:16:59.621Z,26.28
2022-10-18T10:19:34.418Z,26.11
2022-10-18T10:22:06.313Z,25.91
2022-10-18T10:24:45.090Z,25.72
2022-10-18T10:27:23.040Z,25.48
2022-10-18T10:30:04.212Z,25.29
2022-10-18T10:32:50.810Z,25.13
2022-10-18T10:35:53.476Z,24.97
2022-10-18T10:38:31.129Z,24.81
2022-10-18T10:41:02.300Z,24.65
2022-10-18T10:43:39.739Z,24.52
2022-10-18T10:46:19.044Z,24.44
2022-10-18T10:49:15.424Z,24.38
2022-10-18T10:52:08.190Z,24.33
2022-10-18T10:54:51.238Z,24.32
2022-10-18T10:57:30.178Z,24.29
2022-10-18T11:00:00.513Z,24.25
2022-10-18T11:02:37.981Z,24.25
2022-10-18T11:05:27.194Z,24.26
2022-10-18T11:08:03.263Z,24.24
2022-10-18T11:10:41.791Z,24.20
2022-10-18T11:13:25.191Z,24.12
2022-10-18T11:16:08.934Z,24.05
2022-10-18T11:18:43.930Z,23.94
2022-10-18T11:21:21.847Z,23.85
2022-10-18T11:23:54.247Z,23.76
2022-10-18T11:26:41.078Z,23.65
2022-10-18T11:29:44.909Z,23.55
2022-10-18T11:32:26.335Z,23.44
2022-10-18T11:35:12.650Z,23.36
2022-10-18T11:37:59.096Z,23.30
2022-10-18T11:40:43.650Z,23.22
2022-10-18T11:43:30.160Z,23.17
2022-10-18T11:46:12.806Z,23.10
2022-10-18T11:49:01.445Z,23.04
2022-10-18T11:52:06.794Z,22.97
2022-10-18T11:54:50.463Z,22.88
2022-10-18T11:57:45.862Z,22.82
2022-10-18T12:00:29.028Z,22.77
2022-10-18T12:03:28.753Z,22.76
2022-10-18T12:06:03.085Z,22.72
2022-10-18T12:08:39.032Z,22.68
2022-10-18T12:11:17.237Z,22.62
2022-10-18T12:13:51.729Z,22.51
2022-10-18T12:16:49.474Z,22.40
2022-10-18T12:19:26.283Z,22.26
2022-10-18T12:22:08.214Z,22.15
2022-10-18T12:24:40.305Z,22.03
2022-10-18T12:27:16.250Z,21.95
2022-10-18T12:29:52.698Z,21.89
2022-10-18T12:32:28.150Z,21.82
2022-10-18T12:35:03.298Z,21.76
2022-10-18T12:38:02.498Z,21.69
2022-10-18T12:40:39.657Z,21.62
2022-10-18T12:43:22.475Z,21.55
2022-10-18T12:45:57.525Z,21.49
2022-10-18T12:48:38.957Z,21.42
2022-10-18T12:51:23.893Z,21.35
2022-10-18T12:54:17.983Z,21.30
2022-10-18T12:57:12.592Z,21.24
2022-10-18T12:59:48.455Z,21.18
2022-10-18T13:02:32.564Z,21.13
2022-10-18T13:05:53.895Z,21.09
2022-10-18T13:08:42.189Z,21.04
2022-10-18T13:11:32.975Z,21.01
2022-10-18T13:14:21.659Z,20.95
2022-10-18T13:16:58.934Z,20.91
2022-10-18T13:19:39.761Z,20.88
2022-10-18T13:22:26.306Z,20.86
2022-10-18T13:25:05.090Z,20.80
2022-10-18T13:27:44.883Z,20.76
2022-10-18T13:30:31.174Z,20.70
2022-10-18T13:33:18.029Z,20.66
2022-10-18T13:35:57.445Z,20.62
2022-10-18T13:39:02.087Z,20.57
2022-10-18T13:41:57.475Z,20.52
2022-10-18T13:44:32.736Z,20.48
2022-10-18T13:47:33.748Z,20.45
2022-10-18T13:50:21.019Z,20.39
2022-10-18T13:53:27.385Z,20.36
2022-10-18T13:56:27.554Z,20.33
2022-10-18T13:59:18.931Z,20.30
2022-10-18T14:02:05.453Z,20.26
2022-10-18T14:05:17.038Z,20.23
2022-10-18T14:08:06.876Z,20.18
2022-10-18T14:11:02.078Z,20.12
2022-10-18T14:13:44.117Z,20.03
2022-10-18T14:16:29.012Z,19.94
2022-10-18T14:19:10.175Z,19.86
2022-10-18T14:21:46.132Z,19.78
2022-10-18T14:24:24.375Z,19.69
2022-10-18T14:27:13.103Z,19.62
2022-10-18T14:29:44.119Z,19.54
2022-10-18T14:32:26.273Z,19.48
2022-10-18T14:35:20.685Z,19.42
2022-10-18T14:37:50.236Z,19.37
2022-10-18T14:40:38.068Z,19.32
2022-10-18T14:43:14.487Z,19.27
2022-10-18T14:45:46.094Z,19.21
2022-10-18T14:48:22.254Z,19.14
2022-10-18T14:51:00.591Z,19.07
2022-10-18T14:53:39.161Z,19.01
2022-10-18T14:56:20.823Z,18.96
2022-10-18T14:58:52.401Z,18.90
2022-10-18T15:01:27.507Z,18.83
2022-10-18T15:04:06.245Z,18.75
2022-10-18T15:06:37.154Z,18.67
2022-10-18T15:09:10.923Z,18.60
2022-10-18T15:11:43.984Z,18.55
2022-10-18T15:14:19.146Z,18.48
2022-10-18T15:16:53.488Z,18.40
2022-10-18T15:19:36.758Z,18.33
2022-10-18T15:25:17.654Z,18.19
2022-10-18T15:27:51.572Z,18.11
2022-10-18T15:30:28.175Z,18.04
2022-10-18T15:33:00.987Z,17.97
2022-10-18T15:35:33.761Z,17.89
2022-10-18T15:38:17.051Z,17.82
2022-10-18T15:40:48.641Z,17.73
2022-10-18T15:43:38.744Z,17.68
2022-10-18T15:46:32.829Z,17.62
2022-10-18T15:49:52.213Z,17.56
2022-10-18T15:52:41.979Z,17.49
2022-10-18T15:55:52.916Z,17.43
2022-10-18T15:58:27.067Z,17.39
2022-10-18T16:01:01.257Z,17.32
2022-10-18T16:03:36.686Z,17.25
2022-10-18T16:06:12.244Z,17.21
2022-10-18T16:08:47.423Z,17.16
2022-10-18T16:11:21.067Z,17.11
2022-10-18T16:13:56.426Z,17.06
2022-10-18T16:16:32.617Z,17.01
2022-10-18T16:19:04.970Z,16.96
2022-10-18T16:21:38.291Z,16.88
2022-10-18T16:24:09.651Z,16.82
2022-10-18T16:26:43.935Z,16.76
2022-10-18T16:29:19.332Z,16.70
2022-10-18T16:31:51.891Z,16.65
2022-10-18T16:34:22.899Z,16.58
2022-10-18T16:36:54.771Z,16.52
2022-10-18T16:39:26.064Z,16.45
2022-10-18T16:41:56.966Z,16.41
2022-10-18T16:44:28.054Z,16.35
2022-10-18T16:46:59.328Z,16.29
2022-10-18T16:49:30.399Z,16.24
2022-10-18T16:52:01.642Z,16.19
2022-10-18T16:54:33.333Z,16.16
2022-10-18T16:57:04.546Z,16.16
2022-10-18T16:59:35.559Z,16.15
2022-10-18T17:02:09.320Z,16.14
2022-10-18T17:04:40.256Z,16.14
2022-10-18T17:07:19.278Z,16.14
2022-10-18T17:09:57.780Z,16.14
2022-10-18T17:12:29.022Z,16.12
2022-10-18T17:15:00.573Z,16.12
2022-10-18T17:17:31.990Z,16.12
2022-10-18T17:20:03.369Z,16.11
2022-10-18T17:22:34.527Z,16.10
2022-10-18T17:25:14.809Z,16.07
2022-10-18T17:27:46.516Z,16.03
2022-10-18T17:30:19.978Z,15.96
2022-10-18T17:32:51.034Z,15.91
2022-10-18T17:35:23.765Z,15.86
2022-10-18T17:37:58.378Z,15.78
2022-10-18T17:41:40.856Z,15.70
2022-10-18T17:44:14.597Z,15.57
2022-10-18T17:47:03.558Z,15.50
2022-10-18T17:49:35.354Z,15.46
2022-10-18T17:52:07.481Z,15.45
2022-10-18T17:54:53.168Z,15.43
2022-10-18T17:57:24.747Z,15.40
2022-10-18T17:59:56.479Z,15.38
2022-10-18T18:02:27.825Z,15.38
2022-10-18T18:04:58.900Z,15.40
2022-10-18T18:07:30.838Z,15.41
2022-10-18T18:10:02.803Z,15.42
2022-10-18T18:12:43.349Z,15.42
2022-10-18T18:15:15.591Z,15.41
2022-10-18T18:17:57.043Z,15.43
2022-10-18T18:20:42.342Z,15.44
2022-10-18T18:23:16.933Z,15.46
2022-10-18T18:26:00.079Z,15.47
2022-10-18T18:28:32.569Z,15.47
2022-10-18T18:31:09.668Z,15.49
2022-10-18T18:33:46.508Z,15.49
2022-10-18T18:36:18.041Z,15.50
2022-10-18T18:38:51.219Z,15.51
2022-10-18T18:41:28.210Z,15.52
2022-10-18T18:44:03.359Z,15.54
2022-10-18T18:46:36.998Z,15.55
2022-10-18T18:49:13.924Z,15.56
2022-10-18T18:51:45.456Z,15.56
2022-10-18T18:54:17.897Z,15.55
2022-10-18T18:56:50.032Z,15.55
2022-10-18T18:59:34.207Z,15.55
2022-10-18T19:02:05.651Z,15.56
2022-10-18T19:04:37.772Z,15.56
2022-10-18T19:07:12.436Z,15.56
2022-10-18T19:09:44.892Z,15.55
2022-10-18T19:12:20.539Z,15.54
2022-10-18T19:14:56.123Z,15.52
2022-10-18T19:17:36.540Z,15.51
2022-10-18T19:20:15.633Z,15.49
2022-10-18T19:22:47.160Z,15.47
2022-10-18T19:25:21.117Z,15.46
2022-10-18T19:27:57.604Z,15.45
2022-10-18T19:30:29.859Z,15.45
2022-10-18T19:33:04.727Z,15.44
2022-10-18T19:35:37.593Z,15.43
2022-10-18T19:38:18.177Z,15.40
2022-10-18T19:40:53.613Z,15.38
2022-10-18T19:43:31.008Z,15.38
2022-10-18T19:46:10.462Z,15.38
2022-10-18T19:48:46.209Z,15.40
2022-10-18T19:51:21.911Z,15.44
2022-10-18T19:53:59.908Z,15.45
2022-10-18T19:56:34.955Z,15.46
2022-10-18T19:59:10.232Z,15.47
2022-10-18T20:01:41.901Z,15.48
2022-10-18T20:04:14.631Z,15.51
2022-10-18T20:06:45.993Z,15.53
2022-10-18T20:09:20.425Z,15.53
2022-10-18T20:11:52.322Z,15.53
2022-10-18T20:14:24.142Z,15.52
2022-10-18T20:16:55.386Z,15.51
2022-10-18T20:19:27.024Z,15.50
2022-10-18T20:21:59.025Z,15.48
2022-10-18T20:24:30.748Z,15.47
2022-10-18T20:27:01.949Z,15.46
2022-10-18T20:29:33.663Z,15.46
2022-10-18T20:32:07.070Z,15.45
2022-10-18T20:34:38.825Z,15.46
2022-10-18T20:37:10.585Z,15.46
2022-10-18T20:39:41.814Z,15.44
2022-10-18T20:42:13.267Z,15.42
2022-10-18T20:44:48.312Z,15.39
2022-10-18T20:47:21.187Z,15.37
2022-10-18T20:49:54.249Z,15.37
2022-10-18T20:52:25.665Z,15.38
2022-10-18T20:54:57.117Z,15.37
2022-10-18T20:57:32.900Z,15.37
2022-10-18T21:00:11.622Z,15.36
2022-10-18T21:02:42.589Z,15.35
2022-10-18T21:05:13.697Z,15.33
2022-10-18T21:07:44.574Z,15.30
2022-10-18T21:10:15.867Z,15.28
2022-10-18T21:12:49.484Z,15.24
2022-10-18T21:15:20.889Z,15.21
2022-10-18T21:17:54.671Z,15.17
2022-10-18T21:20:25.813Z,15.14
2022-10-18T21:22:57.553Z,15.11
2022-10-18T21:25:31.062Z,15.11
2022-10-18T21:28:02.292Z,15.10
2022-10-18T21:30:33.361Z,15.07
2022-10-18T21:33:04.794Z,15.05
2022-10-18T21:35:38.870Z,15.04
2022-10-18T21:38:10.043Z,15.04
2022-10-18T21:40:44.727Z,15.02
2022-10-18T21:43:15.982Z,15.00
2022-10-18T21:45:47.023Z,14.98
2022-10-18T21:48:18.317Z,14.98
2022-10-18T21:50:49.561Z,14.96
2022-10-18T21:53:20.771Z,14.95
2022-10-18T21:55:52.361Z,14.93
2022-10-18T21:58:24.222Z,14.91
2022-10-18T22:00:55.643Z,14.89
2022-10-18T22:03:26.936Z,14.86
2022-10-18T22:06:03.261Z,14.82
2022-10-18T22:08:34.276Z,14.78
2022-10-18T22:11:05.763Z,14.75
2022-10-18T22:13:36.793Z,14.71
2022-10-18T22:16:09.990Z,14.66
2022-10-18T22:18:41.428Z,14.62
2022-10-18T22:21:14.217Z,14.58
2022-10-18T22:23:47.053Z,14.55
2022-10-18T22:26:20.401Z,14.50
2022-10-18T22:28:57.272Z,14.45
2022-10-18T22:31:30.583Z,14.40
2022-10-18T22:34:04.431Z,14.36
2022-10-18T22:36:37.533Z,14.34
2022-10-18T22:39:09.237Z,14.31
2022-10-18T22:41:40.054Z,14.30
2022-10-18T22:44:12.570Z,14.28
2022-10-18T22:46:43.695Z,14.28
2022-10-18T22:49:15.268Z,14.27
2022-10-18T22:51:46.209Z,14.26
2022-10-18T22:54:17.356Z,14.26
2022-10-18T22:56:48.180Z,14.24
2022-10-18T22:59:19.144Z,14.23
2022-10-18T23:01:49.899Z,14.21
2022-10-18T23:04:20.908Z,14.19
2022-10-18T23:06:51.729Z,14.16
2022-10-18T23:09:22.617Z,14.16
2022-10-18T23:11:53.416Z,14.17
2022-10-18T23:14:24.309Z,14.16
2022-10-18T23:16:55.123Z,14.18
2022-10-18T23:19:25.960Z,14.18
2022-10-18T23:21:56.822Z,14.17
2022-10-18T23:24:27.625Z,14.14
2022-10-18T23:26:58.824Z,14.11
2022-10-18T23:29:29.726Z,14.11
2022-10-18T23:32:00.622Z,14.11
2022-10-18T23:34:31.501Z,14.11
2022-10-18T23:37:02.389Z,14.09
2022-10-18T23:39:34.075Z,14.06
2022-10-18T23:42:05.129Z,14.02
2022-10-18T23:44:36.036Z,13.99
2022-10-18T23:47:07.213Z,13.96
2022-10-18T23:49:38.112Z,13.93
2022-10-18T23:52:09.521Z,13.89
2022-10-18T23:54:40.511Z,13.83
2022-10-18T23:57:11.813Z,13.79
2022-10-18T23:59:42.812Z,13.72
